Pagrindinis puslapis
METAR-TAF:

METAR-TAF

Oro uostai :

Minna, Nigerija

platuma: 9-37N, ilguma: 6-32E, Aukštis: 260 m

Dabartinis oras

Ataskaita buvo paskelbta 4 valandos ir 40 minutes, ne 22:00 UTC
Vėjas 3 kt iš Pietų/Pietryčių
Temperatūra 27°C
Drėgmė 74%
Slėgis 1009 hPa
Matomumas 10 km arba daugiau
Mažai debesys ne aukštis 1100 ft
Mažai debesys ne aukštis 2000 ft, Liūtiniai kamuoliniai debesys.
perkūnija,

METAR: DNMN 212200Z 16003KT 9999 TS FEW011 FEW020CB 27/22 Q1009

Laikas: 03:40 (02:40 UTC)


TAF: trūkstamas

Orai ataskaitas ir orų prognozės (METAR, TAF).

turimą stotys yra geltonos ir raudonos taškus žemėlapyje.

Perkelti pele per norėdami pamatyti stoties vardą.

Tada spustelėkite, norėdami matyti oro stebėjimo ir prognozės.

Norėdami pakeisti žemėlapį: spustelėkite ant žalios mygtukų su juodo kryžiaus žemyn,; žalią mygtuką su brūkšneliu, jei norite nutolinti; arba žalių rodyklių gretimoms žemėlapius.


METAR-TAF: